createdAt,value
2018-07-24T00:01:46.729Z,12.50
2018-07-24T00:04:15.256Z,12.03
2018-07-24T00:06:43.774Z,13.70
2018-07-24T00:09:12.334Z,12.87
2018-07-24T00:11:40.882Z,13.00
2018-07-24T00:14:09.420Z,12.30
2018-07-24T00:16:37.924Z,14.20
2018-07-24T00:19:06.483Z,14.43
2018-07-24T00:21:35.262Z,12.57
2018-07-24T00:24:03.851Z,13.63
2018-07-24T00:26:32.393Z,12.17
2018-07-24T00:29:00.940Z,13.60
2018-07-24T00:31:29.518Z,13.67
2018-07-24T00:33:58.091Z,12.77
2018-07-24T00:36:26.605Z,13.60
2018-07-24T00:38:55.095Z,14.43
2018-07-24T00:41:23.635Z,14.23
2018-07-24T00:43:52.121Z,12.80
2018-07-24T00:46:20.642Z,12.27
2018-07-24T00:48:49.144Z,12.63
2018-07-24T00:51:17.670Z,14.03
2018-07-24T00:53:46.209Z,15.07
2018-07-24T00:56:14.726Z,26.30
2018-07-24T00:58:43.234Z,21.40
2018-07-24T01:01:11.759Z,19.37
2018-07-24T01:03:40.286Z,16.50
2018-07-24T01:06:08.900Z,14.47
2018-07-24T01:08:37.449Z,12.53
2018-07-24T01:11:06.122Z,13.00
2018-07-24T01:13:34.649Z,13.20
2018-07-24T01:16:03.177Z,11.50
2018-07-24T01:18:31.676Z,12.37
2018-07-24T01:21:00.198Z,12.70
2018-07-24T01:23:28.765Z,13.97
2018-07-24T01:25:57.281Z,13.10
2018-07-24T01:28:25.764Z,14.03
2018-07-24T01:30:54.376Z,19.60
2018-07-24T01:33:22.877Z,18.10
2018-07-24T01:35:51.493Z,18.70
2018-07-24T01:38:19.993Z,17.63
2018-07-24T01:40:48.604Z,16.43
2018-07-24T01:43:17.202Z,14.80
2018-07-24T01:45:45.724Z,15.80
2018-07-24T01:48:14.582Z,18.60
2018-07-24T01:50:43.106Z,17.33
2018-07-24T01:53:11.649Z,16.40
2018-07-24T01:55:40.172Z,18.20
2018-07-24T01:58:08.676Z,16.53
2018-07-24T02:00:37.202Z,15.30
2018-07-24T02:03:05.726Z,15.03
2018-07-24T02:05:34.329Z,15.13
2018-07-24T02:08:02.814Z,15.23
2018-07-24T02:10:31.321Z,14.03
2018-07-24T02:12:59.847Z,16.07
2018-07-24T02:15:28.361Z,15.70
2018-07-24T02:17:56.846Z,13.60
2018-07-24T02:20:25.383Z,13.17
2018-07-24T02:22:53.915Z,13.90
2018-07-24T02:25:22.393Z,12.80
2018-07-24T02:27:50.900Z,13.10
2018-07-24T02:30:19.413Z,12.33
2018-07-24T02:32:47.929Z,12.20
2018-07-24T02:35:16.495Z,12.47
2018-07-24T02:37:45.019Z,11.97
2018-07-24T02:40:13.515Z,13.17
2018-07-24T02:42:42.043Z,12.60
2018-07-24T02:45:10.529Z,11.80
2018-07-24T02:47:39.038Z,10.93
2018-07-24T02:50:07.565Z,11.30
2018-07-24T02:52:36.071Z,11.20
2018-07-24T02:55:04.737Z,11.13
2018-07-24T02:57:33.263Z,11.37
2018-07-24T03:00:01.757Z,10.70
2018-07-24T03:02:30.277Z,10.07
2018-07-24T03:04:58.808Z,10.80
2018-07-24T03:07:27.371Z,10.73
2018-07-24T03:09:55.870Z,11.57
2018-07-24T03:12:24.471Z,14.03
2018-07-24T03:14:52.994Z,10.93
2018-07-24T03:17:21.533Z,12.40
2018-07-24T03:19:50.049Z,12.50
2018-07-24T03:22:18.618Z,10.50
2018-07-24T03:24:47.129Z,11.07
2018-07-24T03:27:15.657Z,11.77
2018-07-24T03:29:44.152Z,13.30
2018-07-24T03:32:12.704Z,12.30
2018-07-24T03:34:41.217Z,12.97
2018-07-24T03:37:09.766Z,13.00
2018-07-24T03:39:38.316Z,13.23
2018-07-24T03:42:07.290Z,12.87
2018-07-24T03:44:35.800Z,12.13
2018-07-24T03:47:04.386Z,15.27
2018-07-24T03:49:33.190Z,14.60
2018-07-24T03:52:01.709Z,15.13
2018-07-24T03:54:30.215Z,13.93
2018-07-24T03:56:58.758Z,12.90
2018-07-24T03:59:27.311Z,13.50
2018-07-24T04:01:55.878Z,12.47
2018-07-24T04:04:24.388Z,11.67
2018-07-24T04:06:52.910Z,12.00
2018-07-24T04:09:21.414Z,11.80
2018-07-24T04:11:49.952Z,11.00
2018-07-24T04:14:18.524Z,11.87
2018-07-24T04:16:47.024Z,11.87
2018-07-24T04:19:15.567Z,12.80
2018-07-24T04:21:44.114Z,11.93
2018-07-24T04:24:12.588Z,12.40
2018-07-24T04:26:41.099Z,12.07
2018-07-24T04:29:09.613Z,14.27
2018-07-24T04:31:38.114Z,12.57
2018-07-24T04:34:06.659Z,13.30
2018-07-24T04:36:35.181Z,12.90
2018-07-24T04:39:04.485Z,12.90
2018-07-24T04:41:32.990Z,12.40
2018-07-24T04:44:01.529Z,12.63
2018-07-24T04:46:30.114Z,12.27
2018-07-24T04:48:58.621Z,10.90
2018-07-24T04:51:27.110Z,11.60
2018-07-24T04:53:55.783Z,11.77
2018-07-24T04:56:24.560Z,11.90
2018-07-24T04:58:53.105Z,12.10
2018-07-24T05:01:21.603Z,12.90
2018-07-24T05:03:50.115Z,12.43
2018-07-24T05:06:18.615Z,13.27
2018-07-24T05:08:47.126Z,13.67
2018-07-24T05:11:15.454Z,14.20
2018-07-24T05:13:43.991Z,13.57
2018-07-24T05:16:12.474Z,13.30
2018-07-24T05:18:41.035Z,14.77
2018-07-24T05:21:09.541Z,13.87
2018-07-24T05:23:38.088Z,13.80
2018-07-24T05:26:07.200Z,15.10
2018-07-24T05:28:35.723Z,14.47
2018-07-24T05:31:04.232Z,14.70
2018-07-24T05:33:32.762Z,14.53
2018-07-24T05:36:01.403Z,14.67
2018-07-24T05:38:29.911Z,15.90
2018-07-24T05:40:58.439Z,13.73
2018-07-24T05:43:26.959Z,14.57
2018-07-24T05:45:55.470Z,14.23
2018-07-24T05:48:23.991Z,14.13
2018-07-24T05:50:52.491Z,14.00
2018-07-24T05:53:20.993Z,15.37
2018-07-24T05:55:49.564Z,14.20
2018-07-24T05:58:18.196Z,15.63
2018-07-24T06:00:46.826Z,14.57
2018-07-24T06:03:15.363Z,14.47
2018-07-24T06:05:43.998Z,14.03
2018-07-24T06:08:12.643Z,14.40
2018-07-24T06:10:41.146Z,15.17
2018-07-24T06:13:09.743Z,14.73
2018-07-24T06:15:38.242Z,14.27
2018-07-24T06:18:07.129Z,13.60
2018-07-24T06:20:35.642Z,15.43
2018-07-24T06:23:04.238Z,14.47
2018-07-24T06:25:33.189Z,14.50
2018-07-24T06:28:01.702Z,15.33
2018-07-24T06:30:30.254Z,16.17
2018-07-24T06:32:58.805Z,14.60
2018-07-24T06:35:27.370Z,13.53
2018-07-24T06:37:55.906Z,15.63
2018-07-24T06:40:24.463Z,16.03
2018-07-24T06:42:53.002Z,15.00
2018-07-24T06:45:21.655Z,16.40
2018-07-24T06:47:50.163Z,15.80
2018-07-24T06:50:18.720Z,17.50
2018-07-24T06:52:47.235Z,16.93
2018-07-24T06:55:15.760Z,17.63
2018-07-24T06:57:44.279Z,16.37
2018-07-24T07:00:12.819Z,18.80
2018-07-24T07:02:41.342Z,18.53
2018-07-24T07:05:10.204Z,19.30
2018-07-24T07:07:39.808Z,19.60
2018-07-24T07:10:08.664Z,18.27
2018-07-24T07:12:37.667Z,19.07
2018-07-24T07:15:06.982Z,18.60
2018-07-24T07:17:35.520Z,16.90
2018-07-24T07:20:04.303Z,16.13
2018-07-24T07:22:32.829Z,15.90
2018-07-24T07:25:01.391Z,15.77
2018-07-24T07:27:29.945Z,14.57
2018-07-24T07:29:58.505Z,14.50
2018-07-24T07:32:27.074Z,14.67
2018-07-24T07:34:55.595Z,14.60
2018-07-24T07:37:24.242Z,13.37
2018-07-24T07:39:52.763Z,13.70
2018-07-24T07:42:21.274Z,12.97
2018-07-24T07:44:49.804Z,11.30
2018-07-24T07:47:18.327Z,12.23
2018-07-24T07:49:46.849Z,12.37
2018-07-24T07:52:15.394Z,11.40
2018-07-24T07:54:43.963Z,11.77
2018-07-24T07:57:12.536Z,11.63
2018-07-24T07:59:41.069Z,11.47
2018-07-24T08:02:09.710Z,12.03
2018-07-24T08:04:38.246Z,11.17
2018-07-24T08:07:06.771Z,9.93
2018-07-24T08:09:35.308Z,10.50
2018-07-24T08:12:03.847Z,10.20
2018-07-24T08:14:32.388Z,10.20
2018-07-24T08:17:00.936Z,9.97
2018-07-24T08:19:29.486Z,10.43
2018-07-24T08:21:58.033Z,10.07
2018-07-24T08:24:26.651Z,9.80
2018-07-24T08:26:55.246Z,10.57
2018-07-24T08:29:23.753Z,10.00
2018-07-24T08:31:52.303Z,9.70
2018-07-24T08:34:20.849Z,9.17
2018-07-24T08:36:49.395Z,7.97
2018-07-24T08:39:18.049Z,10.30
2018-07-24T08:41:46.671Z,8.27
2018-07-24T08:44:15.176Z,8.30
2018-07-24T08:46:43.726Z,9.03
2018-07-24T08:49:12.305Z,8.93
2018-07-24T08:51:40.847Z,9.30
2018-07-24T08:54:09.367Z,8.83
2018-07-24T08:56:37.897Z,9.17
2018-07-24T08:59:06.404Z,9.17
2018-07-24T09:01:35.017Z,8.60
2018-07-24T09:04:03.582Z,10.10
2018-07-24T09:06:32.150Z,8.87
2018-07-24T09:09:00.366Z,10.00
2018-07-24T09:11:28.910Z,9.07
2018-07-24T09:13:57.430Z,8.70
2018-07-24T09:16:26.026Z,8.63
2018-07-24T09:18:54.532Z,8.73
2018-07-24T09:21:23.329Z,9.00
2018-07-24T09:23:51.826Z,8.60
2018-07-24T09:26:20.349Z,7.70
2018-07-24T09:28:48.874Z,8.33
2018-07-24T09:31:17.830Z,7.60
2018-07-24T09:33:46.328Z,7.00
2018-07-24T09:36:14.902Z,7.10
2018-07-24T09:38:43.411Z,7.10
2018-07-24T09:41:11.954Z,7.43
2018-07-24T09:43:40.450Z,8.07
2018-07-24T09:46:08.989Z,7.57
2018-07-24T09:48:37.505Z,6.87
2018-07-24T09:51:06.148Z,7.90
2018-07-24T09:53:34.361Z,8.97
2018-07-24T09:56:02.918Z,8.63
2018-07-24T09:58:31.730Z,8.50
2018-07-24T10:01:05.704Z,8.70
2018-07-24T10:03:34.535Z,8.20
2018-07-24T10:06:03.098Z,8.60
2018-07-24T10:08:31.681Z,8.37
2018-07-24T10:11:00.269Z,8.00
2018-07-24T10:13:28.867Z,9.00
2018-07-24T10:15:57.288Z,7.53
2018-07-24T10:18:25.814Z,8.87
2018-07-24T10:20:54.316Z,8.37
2018-07-24T10:23:22.846Z,8.60
2018-07-24T10:25:51.388Z,8.43
2018-07-24T10:28:20.638Z,8.47
2018-07-24T10:30:49.130Z,7.67
2018-07-24T10:33:17.665Z,8.40
2018-07-24T10:35:46.606Z,7.23
2018-07-24T10:38:15.375Z,7.17
2018-07-24T10:40:43.845Z,7.70
2018-07-24T10:43:12.573Z,7.80
2018-07-24T10:45:41.037Z,7.10
2018-07-24T10:48:09.543Z,7.40
2018-07-24T10:50:38.064Z,7.80
2018-07-24T10:53:06.938Z,7.37
2018-07-24T10:55:35.529Z,7.17
2018-07-24T10:58:04.133Z,7.07
2018-07-24T11:00:32.627Z,8.20
2018-07-24T11:03:01.237Z,7.50
2018-07-24T11:05:29.741Z,7.30
2018-07-24T11:07:58.421Z,7.40
2018-07-24T11:10:26.929Z,6.77
2018-07-24T11:12:55.475Z,7.70
2018-07-24T11:15:23.971Z,6.90
2018-07-24T11:17:52.612Z,7.03
2018-07-24T11:20:21.116Z,6.37
2018-07-24T11:22:49.857Z,6.00
2018-07-24T11:25:18.309Z,6.57
2018-07-24T11:27:46.866Z,6.27
2018-07-24T11:30:15.361Z,7.03
2018-07-24T11:32:43.982Z,6.50
2018-07-24T11:35:12.967Z,7.17
2018-07-24T11:37:41.473Z,6.53
2018-07-24T11:40:09.967Z,5.97
2018-07-24T11:42:38.502Z,5.80
2018-07-24T11:45:07.401Z,6.43
2018-07-24T11:47:35.910Z,5.73
2018-07-24T11:50:04.654Z,5.60
2018-07-24T11:52:33.175Z,5.87
2018-07-24T11:55:01.725Z,5.53
2018-07-24T11:57:30.279Z,5.43
2018-07-24T11:59:58.765Z,5.53
2018-07-24T12:02:27.305Z,5.40
2018-07-24T12:04:55.811Z,6.10
2018-07-24T12:07:24.354Z,5.70
2018-07-24T12:09:52.917Z,6.23
2018-07-24T12:12:21.422Z,6.27
2018-07-24T12:14:49.999Z,5.93
2018-07-24T12:17:18.527Z,6.03
2018-07-24T12:19:47.071Z,5.50
2018-07-24T12:22:15.625Z,5.43
2018-07-24T12:24:44.140Z,4.60
2018-07-24T12:27:12.644Z,5.30
2018-07-24T12:29:41.141Z,5.40
2018-07-24T12:32:09.656Z,5.73
2018-07-24T12:34:38.178Z,5.00
2018-07-24T12:37:06.665Z,5.33
2018-07-24T12:39:35.262Z,5.17
2018-07-24T12:42:03.856Z,4.93
2018-07-24T12:44:32.379Z,5.37
2018-07-24T12:47:00.611Z,5.30
2018-07-24T12:49:29.161Z,5.40
2018-07-24T12:51:57.649Z,5.60
2018-07-24T12:54:26.154Z,6.27
2018-07-24T12:56:54.696Z,6.00
2018-07-24T12:59:23.214Z,5.40
2018-07-24T13:01:52.089Z,5.20
2018-07-24T13:04:20.604Z,5.63
2018-07-24T13:06:49.080Z,6.30
2018-07-24T13:09:18.172Z,5.53
2018-07-24T13:11:46.742Z,5.50
2018-07-24T13:14:15.292Z,4.70
2018-07-24T13:16:43.842Z,5.20
2018-07-24T13:19:13.633Z,5.57
2018-07-24T13:21:42.198Z,5.50
2018-07-24T13:24:10.846Z,5.37
2018-07-24T13:26:39.376Z,6.20
2018-07-24T13:29:07.959Z,5.63
2018-07-24T13:31:36.474Z,5.50
2018-07-24T13:34:05.021Z,5.23
2018-07-24T13:36:33.537Z,5.80
2018-07-24T13:39:02.083Z,5.43
2018-07-24T13:41:30.980Z,5.50
2018-07-24T13:43:59.614Z,5.17
2018-07-24T13:46:28.099Z,4.53
2018-07-24T13:48:56.592Z,4.73
2018-07-24T13:51:25.101Z,4.73
2018-07-24T13:53:53.599Z,5.30
2018-07-24T13:56:22.104Z,5.00
2018-07-24T13:58:50.597Z,5.10
2018-07-24T14:01:19.182Z,5.10
2018-07-24T14:03:47.667Z,5.30
2018-07-24T14:06:16.326Z,5.40
2018-07-24T14:08:44.818Z,5.63
2018-07-24T14:11:13.322Z,5.20
2018-07-24T14:13:41.860Z,5.03
2018-07-24T14:16:10.487Z,4.70
2018-07-24T14:18:38.991Z,4.47
2018-07-24T14:21:07.513Z,4.87
2018-07-24T14:23:36.022Z,5.07
2018-07-24T14:26:04.540Z,5.30
2018-07-24T14:28:33.066Z,4.47
2018-07-24T14:31:01.600Z,4.70
2018-07-24T14:33:30.228Z,4.47
2018-07-24T14:35:58.771Z,4.10
2018-07-24T14:38:27.375Z,4.80
2018-07-24T14:40:55.913Z,4.80
2018-07-24T14:43:24.437Z,4.87
2018-07-24T14:45:52.960Z,4.20
2018-07-24T14:48:21.518Z,4.20
2018-07-24T14:50:50.089Z,4.03
2018-07-24T14:53:18.699Z,4.40
2018-07-24T14:55:47.312Z,4.57
2018-07-24T14:58:15.830Z,4.33
2018-07-24T15:00:44.398Z,4.33
2018-07-24T15:03:12.906Z,4.43
2018-07-24T15:05:41.445Z,3.53
2018-07-24T15:08:09.965Z,4.07
2018-07-24T15:10:38.526Z,4.30
2018-07-24T15:13:07.071Z,4.10
2018-07-24T15:15:35.606Z,4.47
2018-07-24T15:18:04.122Z,3.97
2018-07-24T15:20:32.656Z,4.37
2018-07-24T15:23:01.185Z,4.67
2018-07-24T15:25:29.697Z,5.10
2018-07-24T15:27:58.227Z,4.30
2018-07-24T15:30:26.785Z,4.60
2018-07-24T15:32:55.455Z,4.53
2018-07-24T15:35:24.128Z,4.80
2018-07-24T15:37:52.653Z,5.10
2018-07-24T15:40:21.749Z,4.50
2018-07-24T15:42:50.309Z,4.20
2018-07-24T15:45:18.955Z,4.20
2018-07-24T15:47:47.501Z,4.47
2018-07-24T15:50:16.004Z,4.47
2018-07-24T15:52:44.568Z,5.30
2018-07-24T15:55:13.123Z,5.37
2018-07-24T15:57:42.339Z,5.43
2018-07-24T16:00:10.911Z,4.80
2018-07-24T16:02:39.453Z,4.60
2018-07-24T16:05:08.309Z,4.50
2018-07-24T16:07:36.842Z,4.60
2018-07-24T16:10:06.139Z,4.50
2018-07-24T16:12:34.859Z,4.70
2018-07-24T16:15:03.381Z,4.00
2018-07-24T16:17:31.903Z,4.10
2018-07-24T16:20:00.405Z,4.07
2018-07-24T16:22:28.955Z,4.40
2018-07-24T16:24:57.528Z,4.40
2018-07-24T16:27:26.039Z,5.47
2018-07-24T16:29:54.518Z,5.60
2018-07-24T16:32:23.050Z,5.70
2018-07-24T16:34:51.545Z,5.57
2018-07-24T16:37:20.085Z,5.60
2018-07-24T16:39:48.578Z,5.47
2018-07-24T16:42:17.081Z,6.10
2018-07-24T16:44:45.567Z,5.50
2018-07-24T16:47:14.095Z,6.37
2018-07-24T16:49:42.602Z,5.17
2018-07-24T16:52:11.134Z,5.33
2018-07-24T16:54:39.611Z,5.73
2018-07-24T16:57:08.346Z,5.87
2018-07-24T16:59:36.838Z,5.70
2018-07-24T17:02:05.348Z,5.70
2018-07-24T17:04:33.831Z,5.93
2018-07-24T17:07:02.362Z,5.77
2018-07-24T17:09:30.857Z,5.70
2018-07-24T17:11:59.646Z,5.70
2018-07-24T17:14:28.214Z,6.17
2018-07-24T17:16:56.739Z,5.70
2018-07-24T17:19:25.325Z,5.23
2018-07-24T17:21:53.856Z,6.57
2018-07-24T17:24:22.666Z,6.10
2018-07-24T17:26:51.200Z,5.80
2018-07-24T17:29:19.437Z,5.83
2018-07-24T17:31:48.005Z,6.50
2018-07-24T17:34:16.550Z,5.13
2018-07-24T17:36:45.069Z,6.20
2018-07-24T17:39:13.622Z,5.70
2018-07-24T17:41:42.259Z,5.37
2018-07-24T17:44:11.019Z,6.10
2018-07-24T17:46:39.536Z,5.70
2018-07-24T17:49:08.074Z,5.50
2018-07-24T17:51:36.601Z,6.13
2018-07-24T17:54:05.151Z,5.73
2018-07-24T17:56:33.656Z,6.20
2018-07-24T17:59:02.219Z,5.30
2018-07-24T18:01:30.723Z,5.67
2018-07-24T18:03:59.261Z,5.37
2018-07-24T18:06:27.777Z,5.60
2018-07-24T18:08:56.315Z,5.77
2018-07-24T18:11:24.830Z,6.33
2018-07-24T18:13:53.382Z,5.93
2018-07-24T18:16:21.882Z,5.87
2018-07-24T18:18:50.426Z,5.50
2018-07-24T18:21:18.961Z,5.30
2018-07-24T18:23:47.505Z,5.57
2018-07-24T18:26:16.014Z,6.00
2018-07-24T18:28:44.557Z,5.40
2018-07-24T18:31:13.069Z,5.97
2018-07-24T18:33:41.682Z,6.20
2018-07-24T18:36:10.246Z,5.70
2018-07-24T18:38:38.825Z,5.33
2018-07-24T18:41:07.610Z,6.60
2018-07-24T18:43:36.162Z,6.70
2018-07-24T18:46:04.741Z,6.00
2018-07-24T18:48:33.271Z,7.27
2018-07-24T18:51:01.879Z,7.63
2018-07-24T18:53:30.465Z,9.10
2018-07-24T18:55:58.987Z,8.70
2018-07-24T18:58:27.661Z,8.20
2018-07-24T19:00:56.184Z,7.90
2018-07-24T19:03:24.728Z,9.13
2018-07-24T19:05:53.260Z,9.20
2018-07-24T19:08:22.113Z,10.07
2018-07-24T19:10:50.624Z,9.60
2018-07-24T19:13:19.176Z,9.80
2018-07-24T19:15:47.649Z,9.30
2018-07-24T19:18:16.209Z,9.93
2018-07-24T19:20:44.742Z,9.60
2018-07-24T19:23:13.234Z,11.40
2018-07-24T19:25:41.852Z,11.53
2018-07-24T19:28:10.348Z,11.30
2018-07-24T19:30:38.878Z,10.37
2018-07-24T19:33:07.492Z,15.30
2018-07-24T19:35:36.010Z,14.20
2018-07-24T19:38:04.568Z,16.50
2018-07-24T19:40:33.139Z,14.50
2018-07-24T19:43:01.749Z,13.30
2018-07-24T19:45:30.269Z,11.20
2018-07-24T19:47:58.774Z,11.80
2018-07-24T19:50:27.010Z,11.23
2018-07-24T19:52:55.506Z,11.63
2018-07-24T19:55:24.025Z,10.00
2018-07-24T19:57:52.890Z,10.00
2018-07-24T20:00:21.415Z,9.93
2018-07-24T20:02:49.901Z,9.63
2018-07-24T20:05:18.429Z,9.80
2018-07-24T20:07:46.926Z,9.03
2018-07-24T20:10:15.491Z,10.57
2018-07-24T20:12:44.040Z,10.43
2018-07-24T20:15:16.439Z,10.33
2018-07-24T20:17:45.839Z,13.07
2018-07-24T20:20:14.913Z,11.00
2018-07-24T20:22:43.450Z,12.00
2018-07-24T20:25:11.942Z,11.20
2018-07-24T20:27:40.440Z,15.07
2018-07-24T20:30:08.967Z,20.70
2018-07-24T20:32:37.482Z,16.47
2018-07-24T20:35:06.736Z,21.47
2018-07-24T20:37:35.266Z,18.23
2018-07-24T20:40:04.819Z,16.57
2018-07-24T20:42:33.486Z,14.73
2018-07-24T20:45:01.999Z,15.17
2018-07-24T20:47:30.534Z,18.07
2018-07-24T20:49:59.054Z,17.83
2018-07-24T20:52:27.677Z,16.50
2018-07-24T20:54:56.221Z,12.57
2018-07-24T20:57:24.860Z,11.53
2018-07-24T20:59:53.505Z,11.17
2018-07-24T21:02:22.069Z,10.93
2018-07-24T21:04:50.588Z,20.63
2018-07-24T21:07:19.293Z,16.10
2018-07-24T21:09:48.032Z,17.63
2018-07-24T21:12:16.544Z,13.20
2018-07-24T21:14:45.091Z,17.50
2018-07-24T21:17:13.589Z,14.77
2018-07-24T21:19:42.159Z,15.20
2018-07-24T21:22:10.675Z,14.30
2018-07-24T21:24:39.193Z,11.93
2018-07-24T21:27:07.741Z,11.60
2018-07-24T21:29:36.281Z,12.27
2018-07-24T21:32:04.916Z,13.23
2018-07-24T21:34:33.464Z,11.57
2018-07-24T21:37:01.980Z,15.40
2018-07-24T21:39:30.663Z,14.03
2018-07-24T21:41:59.189Z,10.60
2018-07-24T21:44:27.704Z,10.03
2018-07-24T21:46:56.295Z,10.10
2018-07-24T21:49:24.782Z,14.07
2018-07-24T21:51:53.298Z,20.60
2018-07-24T21:54:21.772Z,21.07
2018-07-24T21:56:50.621Z,16.10
2018-07-24T21:59:19.106Z,14.50
2018-07-24T22:01:47.627Z,17.30
2018-07-24T22:04:16.121Z,16.00
2018-07-24T22:06:44.640Z,17.03
2018-07-24T22:09:13.134Z,15.97
2018-07-24T22:11:41.679Z,21.37
2018-07-24T22:14:10.210Z,20.60
2018-07-24T22:16:38.774Z,16.73
2018-07-24T22:19:07.293Z,13.40
2018-07-24T22:21:35.842Z,14.10
2018-07-24T22:24:04.402Z,16.77
2018-07-24T22:26:32.929Z,15.30
2018-07-24T22:29:01.521Z,13.97
2018-07-24T22:31:30.069Z,13.70
2018-07-24T22:33:58.570Z,13.57
2018-07-24T22:36:27.125Z,11.90
2018-07-24T22:38:55.745Z,10.93
2018-07-24T22:41:24.300Z,12.40
2018-07-24T22:43:52.815Z,13.00
2018-07-24T22:46:21.349Z,13.70
2018-07-24T22:48:49.886Z,14.87
2018-07-24T22:51:18.406Z,13.90
2018-07-24T22:53:46.944Z,20.23
2018-07-24T22:56:15.539Z,16.90
2018-07-24T22:58:44.033Z,22.73
2018-07-24T23:01:12.575Z,25.23
2018-07-24T23:03:41.083Z,18.47
2018-07-24T23:06:09.646Z,13.40
2018-07-24T23:08:38.230Z,17.63
2018-07-24T23:11:06.777Z,14.43
2018-07-24T23:13:35.297Z,11.50
2018-07-24T23:16:03.781Z,11.07
2018-07-24T23:18:32.286Z,10.87
2018-07-24T23:21:00.765Z,9.90
2018-07-24T23:23:29.281Z,9.97
2018-07-24T23:25:57.785Z,10.20
2018-07-24T23:28:26.309Z,10.27
2018-07-24T23:30:54.810Z,12.33
2018-07-24T23:33:23.341Z,12.10
2018-07-24T23:35:51.832Z,11.20
2018-07-24T23:38:20.350Z,11.53
2018-07-24T23:40:48.861Z,14.87
2018-07-24T23:43:17.369Z,12.83
2018-07-24T23:45:45.881Z,11.83
2018-07-24T23:48:14.431Z,11.93
2018-07-24T23:50:42.913Z,11.97
2018-07-24T23:53:11.423Z,11.30
2018-07-24T23:55:39.929Z,10.40
2018-07-24T23:58:08.438Z,15.17
